sensor_id;sensor_type;location;lat;lon;timestamp;temperature;humidity
52471;DHT22;38382;53.160;7.026;2023-02-11T00:00:14;6.30;99.90
52471;DHT22;38382;53.160;7.026;2023-02-11T00:02:40;6.30;99.90
52471;DHT22;38382;53.160;7.026;2023-02-11T00:05:06;6.30;99.90
52471;DHT22;38382;53.160;7.026;2023-02-11T00:07:33;6.30;99.90
52471;DHT22;38382;53.160;7.026;2023-02-11T00:09:59;6.30;99.90
52471;DHT22;38382;53.160;7.026;2023-02-11T00:12:27;6.30;99.90
52471;DHT22;38382;53.160;7.026;2023-02-11T00:14:53;6.30;99.90
52471;DHT22;38382;53.160;7.026;2023-02-11T00:17:19;6.40;99.90
52471;DHT22;38382;53.160;7.026;2023-02-11T00:19:48;6.30;99.90
52471;DHT22;38382;53.160;7.026;2023-02-11T00:22:14;6.30;99.90
52471;DHT22;38382;53.160;7.026;2023-02-11T00:24:40;6.30;99.90
52471;DHT22;38382;53.160;7.026;2023-02-11T00:27:06;6.30;99.90
52471;DHT22;38382;53.160;7.026;2023-02-11T00:29:32;6.60;99.90
52471;DHT22;38382;53.160;7.026;2023-02-11T00:31:57;6.30;99.90
52471;DHT22;38382;53.160;7.026;2023-02-11T00:34:23;6.30;99.90
52471;DHT22;38382;53.160;7.026;2023-02-11T00:36:49;6.30;99.90
52471;DHT22;38382;53.160;7.026;2023-02-11T00:39:16;6.30;99.90
52471;DHT22;38382;53.160;7.026;2023-02-11T00:41:41;6.30;99.90
52471;DHT22;38382;53.160;7.026;2023-02-11T00:44:07;6.30;99.90
52471;DHT22;38382;53.160;7.026;2023-02-11T00:46:33;6.40;99.90
52471;DHT22;38382;53.160;7.026;2023-02-11T00:48:59;6.30;99.90
52471;DHT22;38382;53.160;7.026;2023-02-11T00:51:26;6.30;99.90
52471;DHT22;38382;53.160;7.026;2023-02-11T00:53:51;6.30;99.90
52471;DHT22;38382;53.160;7.026;2023-02-11T00:56:17;6.30;99.90
52471;DHT22;38382;53.160;7.026;2023-02-11T00:58:43;6.30;99.90
52471;DHT22;38382;53.160;7.026;2023-02-11T01:01:09;6.60;99.90
52471;DHT22;38382;53.160;7.026;2023-02-11T01:03:37;6.30;99.90
52471;DHT22;38382;53.160;7.026;2023-02-11T01:06:03;6.40;99.90
52471;DHT22;38382;53.160;7.026;2023-02-11T01:08:29;6.30;99.90
52471;DHT22;38382;53.160;7.026;2023-02-11T01:11:01;6.60;99.90
52471;DHT22;38382;53.160;7.026;2023-02-11T01:13:27;6.30;99.90
52471;DHT22;38382;53.160;7.026;2023-02-11T01:15:54;6.50;99.90
52471;DHT22;38382;53.160;7.026;2023-02-11T01:18:20;6.40;99.90
52471;DHT22;38382;53.160;7.026;2023-02-11T01:20:45;6.30;99.90
52471;DHT22;38382;53.160;7.026;2023-02-11T01:23:11;6.30;99.90
52471;DHT22;38382;53.160;7.026;2023-02-11T01:25:37;6.30;99.90
52471;DHT22;38382;53.160;7.026;2023-02-11T01:28:03;6.30;99.90
52471;DHT22;38382;53.160;7.026;2023-02-11T01:30:29;6.30;99.90
52471;DHT22;38382;53.160;7.026;2023-02-11T01:32:55;6.30;99.90
52471;DHT22;38382;53.160;7.026;2023-02-11T01:35:20;6.90;99.90
52471;DHT22;38382;53.160;7.026;2023-02-11T01:37:46;6.30;99.90
52471;DHT22;38382;53.160;7.026;2023-02-11T01:40:14;6.30;99.90
52471;DHT22;38382;53.160;7.026;2023-02-11T01:42:41;6.40;99.90
52471;DHT22;38382;53.160;7.026;2023-02-11T01:48:14;6.30;99.90
52471;DHT22;38382;53.160;7.026;2023-02-11T01:50:42;6.30;99.90
52471;DHT22;38382;53.160;7.026;2023-02-11T01:53:10;6.30;99.90
52471;DHT22;38382;53.160;7.026;2023-02-11T01:55:55;6.40;99.90
52471;DHT22;38382;53.160;7.026;2023-02-11T01:58:41;6.30;99.90
52471;DHT22;38382;53.160;7.026;2023-02-11T02:01:10;6.40;99.90
52471;DHT22;38382;53.160;7.026;2023-02-11T02:03:40;6.30;99.90
52471;DHT22;38382;53.160;7.026;2023-02-11T02:06:34;6.30;99.90
52471;DHT22;38382;53.160;7.026;2023-02-11T02:09:05;6.30;99.90
52471;DHT22;38382;53.160;7.026;2023-02-11T02:11:33;6.40;99.90
52471;DHT22;38382;53.160;7.026;2023-02-11T02:13:59;6.40;99.90
52471;DHT22;38382;53.160;7.026;2023-02-11T02:16:33;6.30;99.90
52471;DHT22;38382;53.160;7.026;2023-02-11T02:19:08;6.30;99.90
52471;DHT22;38382;53.160;7.026;2023-02-11T02:38:05;6.30;99.90
52471;DHT22;38382;53.160;7.026;2023-02-11T02:40:37;6.30;99.90
52471;DHT22;38382;53.160;7.026;2023-02-11T02:43:08;6.30;99.90
52471;DHT22;38382;53.160;7.026;2023-02-11T02:45:34;6.30;99.90
52471;DHT22;38382;53.160;7.026;2023-02-11T02:48:00;6.30;99.90
52471;DHT22;38382;53.160;7.026;2023-02-11T02:50:29;6.30;99.90
52471;DHT22;38382;53.160;7.026;2023-02-11T02:56:16;6.30;99.90
52471;DHT22;38382;53.160;7.026;2023-02-11T02:58:59;6.30;99.90
52471;DHT22;38382;53.160;7.026;2023-02-11T03:04:47;6.30;99.90
52471;DHT22;38382;53.160;7.026;2023-02-11T03:12:32;6.30;99.90
52471;DHT22;38382;53.160;7.026;2023-02-11T03:15:01;6.30;99.90
52471;DHT22;38382;53.160;7.026;2023-02-11T03:17:29;6.20;99.90
52471;DHT22;38382;53.160;7.026;2023-02-11T03:19:57;6.30;99.90
52471;DHT22;38382;53.160;7.026;2023-02-11T03:22:29;6.30;99.90
52471;DHT22;38382;53.160;7.026;2023-02-11T03:24:57;6.20;99.90
52471;DHT22;38382;53.160;7.026;2023-02-11T03:27:45;6.30;99.90
52471;DHT22;38382;53.160;7.026;2023-02-11T03:33:02;6.20;99.90
52471;DHT22;38382;53.160;7.026;2023-02-11T03:35:52;6.30;99.90
52471;DHT22;38382;53.160;7.026;2023-02-11T03:38:36;6.30;99.90
52471;DHT22;38382;53.160;7.026;2023-02-11T03:41:05;6.30;99.90
52471;DHT22;38382;53.160;7.026;2023-02-11T03:43:33;6.30;99.90
52471;DHT22;38382;53.160;7.026;2023-02-11T03:46:00;6.30;99.90
52471;DHT22;38382;53.160;7.026;2023-02-11T03:48:30;6.30;99.90
52471;DHT22;38382;53.160;7.026;2023-02-11T03:50:58;6.30;99.90
52471;DHT22;38382;53.160;7.026;2023-02-11T03:53:25;6.30;99.90
52471;DHT22;38382;53.160;7.026;2023-02-11T03:55:53;6.30;99.90
52471;DHT22;38382;53.160;7.026;2023-02-11T03:58:21;6.30;99.90
52471;DHT22;38382;53.160;7.026;2023-02-11T04:00:47;6.30;99.90
52471;DHT22;38382;53.160;7.026;2023-02-11T04:03:13;6.40;99.90
52471;DHT22;38382;53.160;7.026;2023-02-11T04:05:40;6.40;99.90
52471;DHT22;38382;53.160;7.026;2023-02-11T04:08:06;6.40;99.90
52471;DHT22;38382;53.160;7.026;2023-02-11T04:10:32;6.40;99.90
52471;DHT22;38382;53.160;7.026;2023-02-11T04:12:58;6.50;99.90
52471;DHT22;38382;53.160;7.026;2023-02-11T04:15:24;6.40;99.90
52471;DHT22;38382;53.160;7.026;2023-02-11T04:17:49;6.40;99.90
52471;DHT22;38382;53.160;7.026;2023-02-11T04:20:15;6.40;99.90
52471;DHT22;38382;53.160;7.026;2023-02-11T04:22:41;6.40;99.90
52471;DHT22;38382;53.160;7.026;2023-02-11T04:25:08;6.40;99.90
52471;DHT22;38382;53.160;7.026;2023-02-11T04:27:34;6.40;99.90
52471;DHT22;38382;53.160;7.026;2023-02-11T04:30:00;6.50;99.90
52471;DHT22;38382;53.160;7.026;2023-02-11T04:32:25;6.70;99.90
52471;DHT22;38382;53.160;7.026;2023-02-11T04:34:51;6.70;99.90
52471;DHT22;38382;53.160;7.026;2023-02-11T04:37:18;6.50;99.90
52471;DHT22;38382;53.160;7.026;2023-02-11T04:39:44;6.60;99.90
52471;DHT22;38382;53.160;7.026;2023-02-11T04:44:45;6.60;99.90
52471;DHT22;38382;53.160;7.026;2023-02-11T04:47:12;6.50;99.90
52471;DHT22;38382;53.160;7.026;2023-02-11T04:49:40;6.60;99.90
52471;DHT22;38382;53.160;7.026;2023-02-11T04:52:06;6.60;99.90
52471;DHT22;38382;53.160;7.026;2023-02-11T04:54:32;6.60;99.90
52471;DHT22;38382;53.160;7.026;2023-02-11T04:56:57;6.70;99.90
52471;DHT22;38382;53.160;7.026;2023-02-11T04:59:23;6.60;99.90
52471;DHT22;38382;53.160;7.026;2023-02-11T05:01:49;6.70;99.90
52471;DHT22;38382;53.160;7.026;2023-02-11T05:04:15;6.70;99.90
52471;DHT22;38382;53.160;7.026;2023-02-11T05:06:41;6.60;99.90
52471;DHT22;38382;53.160;7.026;2023-02-11T05:09:07;6.70;99.90
52471;DHT22;38382;53.160;7.026;2023-02-11T05:11:33;7.30;99.90
52471;DHT22;38382;53.160;7.026;2023-02-11T05:13:59;6.70;99.90
52471;DHT22;38382;53.160;7.026;2023-02-11T05:16:24;6.70;99.90
52471;DHT22;38382;53.160;7.026;2023-02-11T05:18:50;6.90;99.90
52471;DHT22;38382;53.160;7.026;2023-02-11T05:21:17;6.80;99.90
52471;DHT22;38382;53.160;7.026;2023-02-11T05:23:43;7.60;99.90
52471;DHT22;38382;53.160;7.026;2023-02-11T05:26:10;6.90;99.90
52471;DHT22;38382;53.160;7.026;2023-02-11T05:28:36;6.80;99.90
52471;DHT22;38382;53.160;7.026;2023-02-11T05:31:02;6.80;99.90
52471;DHT22;38382;53.160;7.026;2023-02-11T05:33:27;6.80;99.90
52471;DHT22;38382;53.160;7.026;2023-02-11T05:36:07;6.90;99.90
52471;DHT22;38382;53.160;7.026;2023-02-11T05:38:34;6.90;99.90
52471;DHT22;38382;53.160;7.026;2023-02-11T05:41:00;6.90;99.90
52471;DHT22;38382;53.160;7.026;2023-02-11T05:43:26;6.90;99.90
52471;DHT22;38382;53.160;7.026;2023-02-11T05:45:52;6.90;99.90
52471;DHT22;38382;53.160;7.026;2023-02-11T05:59:49;7.00;99.90
52471;DHT22;38382;53.160;7.026;2023-02-11T06:02:15;6.90;99.90
52471;DHT22;38382;53.160;7.026;2023-02-11T06:04:41;6.90;99.90
52471;DHT22;38382;53.160;7.026;2023-02-11T06:07:06;6.90;99.90
52471;DHT22;38382;53.160;7.026;2023-02-11T06:09:32;6.90;99.90
52471;DHT22;38382;53.160;7.026;2023-02-11T06:11:58;6.90;99.90
52471;DHT22;38382;53.160;7.026;2023-02-11T06:14:24;6.90;99.90
52471;DHT22;38382;53.160;7.026;2023-02-11T06:16:49;6.90;99.90
52471;DHT22;38382;53.160;7.026;2023-02-11T06:19:15;6.80;99.90
52471;DHT22;38382;53.160;7.026;2023-02-11T06:21:41;6.90;99.90
52471;DHT22;38382;53.160;7.026;2023-02-11T06:24:07;6.80;99.90
52471;DHT22;38382;53.160;7.026;2023-02-11T06:26:32;6.80;99.90
52471;DHT22;38382;53.160;7.026;2023-02-11T06:29:01;6.90;99.90
52471;DHT22;38382;53.160;7.026;2023-02-11T06:43:13;7.40;99.90
52471;DHT22;38382;53.160;7.026;2023-02-11T06:45:39;6.30;99.90
52471;DHT22;38382;53.160;7.026;2023-02-11T06:48:05;6.80;99.90
52471;DHT22;38382;53.160;7.026;2023-02-11T06:50:30;6.80;99.90
52471;DHT22;38382;53.160;7.026;2023-02-11T06:52:58;6.80;99.90
52471;DHT22;38382;53.160;7.026;2023-02-11T06:55:24;7.50;99.90
52471;DHT22;38382;53.160;7.026;2023-02-11T06:57:50;7.60;99.90
52471;DHT22;38382;53.160;7.026;2023-02-11T07:00:16;6.70;99.90
52471;DHT22;38382;53.160;7.026;2023-02-11T07:02:42;6.70;99.90
52471;DHT22;38382;53.160;7.026;2023-02-11T07:05:08;7.40;99.90
52471;DHT22;38382;53.160;7.026;2023-02-11T07:07:34;6.80;99.90
52471;DHT22;38382;53.160;7.026;2023-02-11T07:10:00;6.30;99.90
52471;DHT22;38382;53.160;7.026;2023-02-11T07:12:27;6.70;99.90
52471;DHT22;38382;53.160;7.026;2023-02-11T07:14:54;6.70;99.90
52471;DHT22;38382;53.160;7.026;2023-02-11T07:17:20;6.70;99.90
52471;DHT22;38382;53.160;7.026;2023-02-11T07:19:45;7.00;99.90
52471;DHT22;38382;53.160;7.026;2023-02-11T07:22:11;6.70;99.90
52471;DHT22;38382;53.160;7.026;2023-02-11T07:24:37;6.70;99.90
52471;DHT22;38382;53.160;7.026;2023-02-11T07:27:03;6.70;99.90
52471;DHT22;38382;53.160;7.026;2023-02-11T07:29:29;6.70;99.90
52471;DHT22;38382;53.160;7.026;2023-02-11T07:31:55;6.80;99.90
52471;DHT22;38382;53.160;7.026;2023-02-11T07:34:20;6.80;99.90
52471;DHT22;38382;53.160;7.026;2023-02-11T07:36:46;6.80;99.90
52471;DHT22;38382;53.160;7.026;2023-02-11T07:39:13;6.80;99.90
52471;DHT22;38382;53.160;7.026;2023-02-11T07:41:39;6.80;99.90
52471;DHT22;38382;53.160;7.026;2023-02-11T07:44:05;6.80;99.90
52471;DHT22;38382;53.160;7.026;2023-02-11T07:46:31;6.80;99.90
52471;DHT22;38382;53.160;7.026;2023-02-11T07:48:59;6.80;99.90
52471;DHT22;38382;53.160;7.026;2023-02-11T07:51:29;6.90;99.90
52471;DHT22;38382;53.160;7.026;2023-02-11T07:53:57;6.90;99.90
52471;DHT22;38382;53.160;7.026;2023-02-11T07:56:23;6.90;99.90
52471;DHT22;38382;53.160;7.026;2023-02-11T07:58:49;6.90;99.90
52471;DHT22;38382;53.160;7.026;2023-02-11T08:01:21;6.90;99.90
52471;DHT22;38382;53.160;7.026;2023-02-11T08:03:50;7.00;99.90
52471;DHT22;38382;53.160;7.026;2023-02-11T08:06:18;7.00;99.90
52471;DHT22;38382;53.160;7.026;2023-02-11T08:08:45;7.00;99.90
52471;DHT22;38382;53.160;7.026;2023-02-11T08:11:13;7.00;99.90
52471;DHT22;38382;53.160;7.026;2023-02-11T08:13:39;7.00;99.90
52471;DHT22;38382;53.160;7.026;2023-02-11T08:16:06;7.00;99.90
52471;DHT22;38382;53.160;7.026;2023-02-11T08:18:33;7.10;99.90
52471;DHT22;38382;53.160;7.026;2023-02-11T08:21:09;7.00;99.90
52471;DHT22;38382;53.160;7.026;2023-02-11T08:23:36;7.10;99.90
52471;DHT22;38382;53.160;7.026;2023-02-11T08:26:04;7.10;99.90
52471;DHT22;38382;53.160;7.026;2023-02-11T08:28:30;7.10;99.90
52471;DHT22;38382;53.160;7.026;2023-02-11T08:30:56;7.20;99.90
52471;DHT22;38382;53.160;7.026;2023-02-11T08:33:22;7.20;99.90
52471;DHT22;38382;53.160;7.026;2023-02-11T08:35:48;7.20;99.90
52471;DHT22;38382;53.160;7.026;2023-02-11T08:38:14;7.80;99.90
52471;DHT22;38382;53.160;7.026;2023-02-11T08:40:39;7.20;99.90
52471;DHT22;38382;53.160;7.026;2023-02-11T08:43:05;7.20;99.90
52471;DHT22;38382;53.160;7.026;2023-02-11T08:45:31;7.30;99.90
52471;DHT22;38382;53.160;7.026;2023-02-11T08:47:56;7.20;99.90
52471;DHT22;38382;53.160;7.026;2023-02-11T08:50:22;7.30;99.90
52471;DHT22;38382;53.160;7.026;2023-02-11T08:52:48;7.30;99.90
52471;DHT22;38382;53.160;7.026;2023-02-11T08:55:14;7.30;99.90
52471;DHT22;38382;53.160;7.026;2023-02-11T08:57:39;7.30;99.90
52471;DHT22;38382;53.160;7.026;2023-02-11T09:00:06;7.70;99.90
52471;DHT22;38382;53.160;7.026;2023-02-11T09:02:31;7.30;99.90
52471;DHT22;38382;53.160;7.026;2023-02-11T09:04:57;7.50;99.90
52471;DHT22;38382;53.160;7.026;2023-02-11T09:07:23;7.90;99.90
52471;DHT22;38382;53.160;7.026;2023-02-11T09:09:48;7.40;99.90
52471;DHT22;38382;53.160;7.026;2023-02-11T09:12:14;7.40;99.90
52471;DHT22;38382;53.160;7.026;2023-02-11T09:14:40;7.50;99.90
52471;DHT22;38382;53.160;7.026;2023-02-11T09:17:06;7.50;99.90
52471;DHT22;38382;53.160;7.026;2023-02-11T09:19:32;7.60;99.90
52471;DHT22;38382;53.160;7.026;2023-02-11T09:21:58;7.60;99.90
52471;DHT22;38382;53.160;7.026;2023-02-11T09:24:24;7.60;99.90
52471;DHT22;38382;53.160;7.026;2023-02-11T09:26:49;7.70;99.90
52471;DHT22;38382;53.160;7.026;2023-02-11T09:29:15;7.70;99.90
52471;DHT22;38382;53.160;7.026;2023-02-11T09:31:41;7.70;99.90
52471;DHT22;38382;53.160;7.026;2023-02-11T09:34:07;7.70;99.90
52471;DHT22;38382;53.160;7.026;2023-02-11T09:36:38;7.80;99.90
52471;DHT22;38382;53.160;7.026;2023-02-11T09:39:08;7.70;99.90
52471;DHT22;38382;53.160;7.026;2023-02-11T09:44:27;7.80;99.90
52471;DHT22;38382;53.160;7.026;2023-02-11T09:46:57;7.90;99.90
52471;DHT22;38382;53.160;7.026;2023-02-11T09:49:53;7.90;99.90
52471;DHT22;38382;53.160;7.026;2023-02-11T09:55:26;8.00;99.90
52471;DHT22;38382;53.160;7.026;2023-02-11T09:57:52;8.00;99.90
52471;DHT22;38382;53.160;7.026;2023-02-11T10:00:30;8.00;99.90
52471;DHT22;38382;53.160;7.026;2023-02-11T10:03:08;8.10;99.90
52471;DHT22;38382;53.160;7.026;2023-02-11T10:08:43;8.20;99.90
52471;DHT22;38382;53.160;7.026;2023-02-11T10:11:25;8.20;99.90
52471;DHT22;38382;53.160;7.026;2023-02-11T10:14:00;8.20;99.90
52471;DHT22;38382;53.160;7.026;2023-02-11T10:22:11;8.30;99.90
52471;DHT22;38382;53.160;7.026;2023-02-11T10:24:40;8.90;99.90
52471;DHT22;38382;53.160;7.026;2023-02-11T10:27:16;8.40;99.90
52471;DHT22;38382;53.160;7.026;2023-02-11T10:29:58;8.50;99.90
52471;DHT22;38382;53.160;7.026;2023-02-11T10:32:34;8.50;99.90
52471;DHT22;38382;53.160;7.026;2023-02-11T10:35:14;8.60;99.90
52471;DHT22;38382;53.160;7.026;2023-02-11T10:37:42;8.70;99.90
52471;DHT22;38382;53.160;7.026;2023-02-11T10:40:17;8.80;99.90
52471;DHT22;38382;53.160;7.026;2023-02-11T10:42:50;8.90;99.90
52471;DHT22;38382;53.160;7.026;2023-02-11T10:45:24;8.90;99.90
52471;DHT22;38382;53.160;7.026;2023-02-11T10:47:50;9.00;99.90
52471;DHT22;38382;53.160;7.026;2023-02-11T10:50:24;9.00;99.90
52471;DHT22;38382;53.160;7.026;2023-02-11T10:52:50;9.10;99.90
52471;DHT22;38382;53.160;7.026;2023-02-11T10:55:22;9.10;99.90
52471;DHT22;38382;53.160;7.026;2023-02-11T10:57:55;9.20;99.90
52471;DHT22;38382;53.160;7.026;2023-02-11T11:00:37;9.20;99.90
52471;DHT22;38382;53.160;7.026;2023-02-11T11:03:44;9.30;99.90
52471;DHT22;38382;53.160;7.026;2023-02-11T11:06:09;9.30;99.90
52471;DHT22;38382;53.160;7.026;2023-02-11T11:08:47;9.40;99.90
52471;DHT22;38382;53.160;7.026;2023-02-11T11:11:19;9.40;99.90
52471;DHT22;38382;53.160;7.026;2023-02-11T11:16:37;9.40;99.90
52471;DHT22;38382;53.160;7.026;2023-02-11T11:21:55;9.30;99.90
52471;DHT22;38382;53.160;7.026;2023-02-11T11:24:32;9.30;99.90
52471;DHT22;38382;53.160;7.026;2023-02-11T11:27:04;9.30;99.90
52471;DHT22;38382;53.160;7.026;2023-02-11T11:29:53;9.30;99.90
52471;DHT22;38382;53.160;7.026;2023-02-11T11:32:24;9.30;99.90
52471;DHT22;38382;53.160;7.026;2023-02-11T11:34:52;9.40;99.90
52471;DHT22;38382;53.160;7.026;2023-02-11T11:37:22;9.40;99.90
52471;DHT22;38382;53.160;7.026;2023-02-11T11:39:57;9.40;99.90
52471;DHT22;38382;53.160;7.026;2023-02-11T11:42:31;9.40;99.90
52471;DHT22;38382;53.160;7.026;2023-02-11T11:45:00;9.40;99.90
52471;DHT22;38382;53.160;7.026;2023-02-11T11:50:39;9.40;99.90
52471;DHT22;38382;53.160;7.026;2023-02-11T11:55:37;9.40;99.90
52471;DHT22;38382;53.160;7.026;2023-02-11T11:58:14;9.40;99.90
52471;DHT22;38382;53.160;7.026;2023-02-11T12:17:37;9.50;99.90
52471;DHT22;38382;53.160;7.026;2023-02-11T12:20:26;9.50;99.90
52471;DHT22;38382;53.160;7.026;2023-02-11T12:26:03;9.50;99.90
52471;DHT22;38382;53.160;7.026;2023-02-11T12:28:51;9.40;99.90
52471;DHT22;38382;53.160;7.026;2023-02-11T12:32:24;9.50;99.90
52471;DHT22;38382;53.160;7.026;2023-02-11T12:34:41;9.50;99.90
52471;DHT22;38382;53.160;7.026;2023-02-11T12:37:32;9.60;99.90
52471;DHT22;38382;53.160;7.026;2023-02-11T12:49:06;9.60;99.90
52471;DHT22;38382;53.160;7.026;2023-02-11T12:57:33;9.50;99.90
52471;DHT22;38382;53.160;7.026;2023-02-11T13:00:14;9.50;99.90
52471;DHT22;38382;53.160;7.026;2023-02-11T13:03:22;9.50;99.90
52471;DHT22;38382;53.160;7.026;2023-02-11T13:08:32;9.50;99.90
52471;DHT22;38382;53.160;7.026;2023-02-11T13:11:19;9.50;99.90
52471;DHT22;38382;53.160;7.026;2023-02-11T13:13:55;9.50;99.90
52471;DHT22;38382;53.160;7.026;2023-02-11T13:16:41;9.50;99.90
52471;DHT22;38382;53.160;7.026;2023-02-11T13:19:25;9.50;99.90
52471;DHT22;38382;53.160;7.026;2023-02-11T13:24:57;9.50;99.90
52471;DHT22;38382;53.160;7.026;2023-02-11T13:27:39;9.50;99.90
52471;DHT22;38382;53.160;7.026;2023-02-11T13:30:23;9.50;99.90
52471;DHT22;38382;53.160;7.026;2023-02-11T13:35:31;9.50;99.90
52471;DHT22;38382;53.160;7.026;2023-02-11T13:38:00;9.50;99.90
52471;DHT22;38382;53.160;7.026;2023-02-11T13:40:37;9.40;99.90
52471;DHT22;38382;53.160;7.026;2023-02-11T13:43:06;9.50;99.90
52471;DHT22;38382;53.160;7.026;2023-02-11T13:45:48;9.50;99.90
52471;DHT22;38382;53.160;7.026;2023-02-11T13:50:52;9.50;99.90
52471;DHT22;38382;53.160;7.026;2023-02-11T13:53:19;9.50;99.90
52471;DHT22;38382;53.160;7.026;2023-02-11T13:55:48;9.50;99.90
52471;DHT22;38382;53.160;7.026;2023-02-11T13:58:33;9.50;99.90
52471;DHT22;38382;53.160;7.026;2023-02-11T14:01:01;9.50;99.90
52471;DHT22;38382;53.160;7.026;2023-02-11T14:03:30;9.40;99.90
52471;DHT22;38382;53.160;7.026;2023-02-11T14:06:20;9.40;99.90
52471;DHT22;38382;53.160;7.026;2023-02-11T14:12:15;9.40;99.90
52471;DHT22;38382;53.160;7.026;2023-02-11T14:17:37;9.40;99.90
52471;DHT22;38382;53.160;7.026;2023-02-11T14:20:33;9.40;99.90
52471;DHT22;38382;53.160;7.026;2023-02-11T14:23:00;9.50;99.90
52471;DHT22;38382;53.160;7.026;2023-02-11T14:25:26;9.40;99.90
52471;DHT22;38382;53.160;7.026;2023-02-11T14:27:56;9.40;99.90
52471;DHT22;38382;53.160;7.026;2023-02-11T14:30:33;9.40;99.90
52471;DHT22;38382;53.160;7.026;2023-02-11T14:36:16;9.40;99.90
52471;DHT22;38382;53.160;7.026;2023-02-11T14:41:24;9.50;99.90
52471;DHT22;38382;53.160;7.026;2023-02-11T14:43:53;9.40;99.90
52471;DHT22;38382;53.160;7.026;2023-02-11T14:46:21;9.40;99.90
52471;DHT22;38382;53.160;7.026;2023-02-11T14:48:51;9.40;99.90
52471;DHT22;38382;53.160;7.026;2023-02-11T14:54:15;9.50;99.90
52471;DHT22;38382;53.160;7.026;2023-02-11T14:56:42;9.50;99.90
52471;DHT22;38382;53.160;7.026;2023-02-11T14:59:20;9.50;99.90
52471;DHT22;38382;53.160;7.026;2023-02-11T15:01:52;9.50;99.90
52471;DHT22;38382;53.160;7.026;2023-02-11T15:04:26;9.50;99.90
52471;DHT22;38382;53.160;7.026;2023-02-11T15:06:53;9.50;99.90
52471;DHT22;38382;53.160;7.026;2023-02-11T15:09:22;9.50;99.90
52471;DHT22;38382;53.160;7.026;2023-02-11T15:11:51;9.50;99.90
52471;DHT22;38382;53.160;7.026;2023-02-11T15:14:47;9.50;99.90
52471;DHT22;38382;53.160;7.026;2023-02-11T15:17:17;9.40;99.90
52471;DHT22;38382;53.160;7.026;2023-02-11T15:19:47;9.40;99.90
52471;DHT22;38382;53.160;7.026;2023-02-11T15:22:17;9.40;99.90
52471;DHT22;38382;53.160;7.026;2023-02-11T15:24:45;9.30;99.90
52471;DHT22;38382;53.160;7.026;2023-02-11T15:27:21;9.30;99.90
52471;DHT22;38382;53.160;7.026;2023-02-11T15:29:50;9.20;99.90
52471;DHT22;38382;53.160;7.026;2023-02-11T15:32:21;9.20;99.90
52471;DHT22;38382;53.160;7.026;2023-02-11T15:34:49;9.20;99.90
52471;DHT22;38382;53.160;7.026;2023-02-11T15:37:20;9.20;99.90
52471;DHT22;38382;53.160;7.026;2023-02-11T15:39:46;9.20;99.90
52471;DHT22;38382;53.160;7.026;2023-02-11T15:42:29;9.20;99.90
52471;DHT22;38382;53.160;7.026;2023-02-11T15:50:33;9.10;99.90
52471;DHT22;38382;53.160;7.026;2023-02-11T15:53:30;9.10;99.90
52471;DHT22;38382;53.160;7.026;2023-02-11T15:58:38;9.00;99.90
52471;DHT22;38382;53.160;7.026;2023-02-11T16:01:06;8.90;99.90
52471;DHT22;38382;53.160;7.026;2023-02-11T16:03:32;8.90;99.90
52471;DHT22;38382;53.160;7.026;2023-02-11T16:06:21;8.90;99.90
52471;DHT22;38382;53.160;7.026;2023-02-11T16:09:03;8.90;99.90
52471;DHT22;38382;53.160;7.026;2023-02-11T16:11:34;8.80;99.90
52471;DHT22;38382;53.160;7.026;2023-02-11T16:14:01;8.80;99.90
52471;DHT22;38382;53.160;7.026;2023-02-11T16:16:30;8.80;99.90
52471;DHT22;38382;53.160;7.026;2023-02-11T16:18:58;8.70;99.90
52471;DHT22;38382;53.160;7.026;2023-02-11T16:21:30;8.70;99.90
52471;DHT22;38382;53.160;7.026;2023-02-11T16:24:13;8.70;99.90
52471;DHT22;38382;53.160;7.026;2023-02-11T16:26:49;8.70;99.90
52471;DHT22;38382;53.160;7.026;2023-02-11T16:29:27;8.70;99.90
52471;DHT22;38382;53.160;7.026;2023-02-11T16:32:08;8.60;99.90
52471;DHT22;38382;53.160;7.026;2023-02-11T16:34:34;8.60;99.90
52471;DHT22;38382;53.160;7.026;2023-02-11T16:37:03;8.60;99.90
52471;DHT22;38382;53.160;7.026;2023-02-11T16:39:29;8.60;99.90
52471;DHT22;38382;53.160;7.026;2023-02-11T16:41:55;8.50;99.90
52471;DHT22;38382;53.160;7.026;2023-02-11T16:44:21;8.60;99.90
52471;DHT22;38382;53.160;7.026;2023-02-11T16:46:48;8.50;99.90
52471;DHT22;38382;53.160;7.026;2023-02-11T16:49:22;8.50;99.90
52471;DHT22;38382;53.160;7.026;2023-02-11T16:51:51;8.50;99.90
52471;DHT22;38382;53.160;7.026;2023-02-11T16:54:18;8.50;99.90
52471;DHT22;38382;53.160;7.026;2023-02-11T16:56:44;8.50;99.90
52471;DHT22;38382;53.160;7.026;2023-02-11T16:59:11;8.50;99.90
52471;DHT22;38382;53.160;7.026;2023-02-11T17:01:38;8.50;99.90
52471;DHT22;38382;53.160;7.026;2023-02-11T17:04:05;8.40;99.90
52471;DHT22;38382;53.160;7.026;2023-02-11T17:06:33;8.40;99.90
52471;DHT22;38382;53.160;7.026;2023-02-11T17:08:59;8.40;99.90
52471;DHT22;38382;53.160;7.026;2023-02-11T17:11:25;8.40;99.90
52471;DHT22;38382;53.160;7.026;2023-02-11T17:13:51;8.30;99.90
52471;DHT22;38382;53.160;7.026;2023-02-11T17:16:21;8.40;99.90
52471;DHT22;38382;53.160;7.026;2023-02-11T17:18:49;8.40;99.90
52471;DHT22;38382;53.160;7.026;2023-02-11T17:21:15;8.30;99.90
52471;DHT22;38382;53.160;7.026;2023-02-11T17:23:41;8.30;99.90
52471;DHT22;38382;53.160;7.026;2023-02-11T17:26:07;8.30;99.90
52471;DHT22;38382;53.160;7.026;2023-02-11T17:28:33;8.30;99.90
52471;DHT22;38382;53.160;7.026;2023-02-11T17:30:59;8.20;99.90
52471;DHT22;38382;53.160;7.026;2023-02-11T17:33:25;8.30;99.90
52471;DHT22;38382;53.160;7.026;2023-02-11T17:35:57;8.30;99.90
52471;DHT22;38382;53.160;7.026;2023-02-11T17:38:23;8.20;99.90
52471;DHT22;38382;53.160;7.026;2023-02-11T17:40:59;8.20;99.90
52471;DHT22;38382;53.160;7.026;2023-02-11T17:43:26;8.20;99.90
52471;DHT22;38382;53.160;7.026;2023-02-11T17:45:52;8.20;99.90
52471;DHT22;38382;53.160;7.026;2023-02-11T17:48:18;8.20;99.90
52471;DHT22;38382;53.160;7.026;2023-02-11T17:50:43;8.20;99.90
52471;DHT22;38382;53.160;7.026;2023-02-11T17:53:09;8.20;99.90
52471;DHT22;38382;53.160;7.026;2023-02-11T17:55:35;8.20;99.90
52471;DHT22;38382;53.160;7.026;2023-02-11T17:58:03;8.20;99.90
52471;DHT22;38382;53.160;7.026;2023-02-11T18:00:29;8.20;99.90
52471;DHT22;38382;53.160;7.026;2023-02-11T18:02:55;8.20;99.90
52471;DHT22;38382;53.160;7.026;2023-02-11T18:05:22;8.20;99.90
52471;DHT22;38382;53.160;7.026;2023-02-11T18:07:50;8.00;99.90
52471;DHT22;38382;53.160;7.026;2023-02-11T18:10:16;8.10;99.90
52471;DHT22;38382;53.160;7.026;2023-02-11T18:12:42;8.10;99.90
52471;DHT22;38382;53.160;7.026;2023-02-11T18:15:08;8.10;99.90
52471;DHT22;38382;53.160;7.026;2023-02-11T18:17:34;8.10;99.90
52471;DHT22;38382;53.160;7.026;2023-02-11T18:20:00;8.10;99.90
52471;DHT22;38382;53.160;7.026;2023-02-11T18:22:28;8.10;99.90
52471;DHT22;38382;53.160;7.026;2023-02-11T18:24:58;8.10;99.90
52471;DHT22;38382;53.160;7.026;2023-02-11T18:27:23;8.10;99.90
52471;DHT22;38382;53.160;7.026;2023-02-11T18:29:49;8.10;99.90
52471;DHT22;38382;53.160;7.026;2023-02-11T18:32:15;8.10;99.90
52471;DHT22;38382;53.160;7.026;2023-02-11T18:34:41;8.00;99.90